createdAt,value
2023-03-18T00:04:39.033Z,7.33
2023-03-18T00:09:43.287Z,7.06
2023-03-18T00:14:46.436Z,7.00
2023-03-18T00:19:50.243Z,6.62
2023-03-18T00:24:54.819Z,6.61
2023-03-18T00:29:58.661Z,6.79
2023-03-18T00:35:02.289Z,6.83
2023-03-18T00:40:10.592Z,6.87
2023-03-18T00:45:13.543Z,6.84
2023-03-18T00:50:18.020Z,6.84
2023-03-18T00:55:22.862Z,6.96
2023-03-18T01:00:27.114Z,6.90
2023-03-18T01:05:30.447Z,6.85
2023-03-18T01:10:34.811Z,7.01
2023-03-18T01:15:38.726Z,6.74
2023-03-18T01:20:41.630Z,6.35
2023-03-18T01:25:45.988Z,6.38
2023-03-18T01:30:55.301Z,6.58
2023-03-18T01:36:00.312Z,6.60
2023-03-18T01:41:07.471Z,6.59
2023-03-18T01:46:41.314Z,6.54
2023-03-18T01:51:49.257Z,6.45
2023-03-18T01:56:55.809Z,6.52
2023-03-18T02:02:04.583Z,6.50
2023-03-18T02:07:16.617Z,6.48
2023-03-18T02:12:24.922Z,6.48
2023-03-18T02:17:35.417Z,6.51
2023-03-18T02:22:43.676Z,6.44
2023-03-18T02:27:52.197Z,6.52
2023-03-18T02:32:58.958Z,6.50
2023-03-18T02:38:01.977Z,6.49
2023-03-18T02:43:20.173Z,6.52
2023-03-18T02:48:33.739Z,6.40
2023-03-18T02:53:37.203Z,6.06
2023-03-18T02:58:41.943Z,6.10
2023-03-18T03:03:45.767Z,6.06
2023-03-18T03:08:49.766Z,6.21
2023-03-18T03:13:54.586Z,6.18
2023-03-18T03:18:57.544Z,6.26
2023-03-18T03:24:00.746Z,6.34
2023-03-18T03:29:07.029Z,6.23
2023-03-18T03:34:10.762Z,6.21
2023-03-18T03:39:13.650Z,6.20
2023-03-18T03:44:17.916Z,6.28
2023-03-18T03:49:25.218Z,6.16
2023-03-18T03:54:28.369Z,6.04
2023-03-18T03:59:32.742Z,6.04
2023-03-18T04:04:49.310Z,6.27
2023-03-18T04:10:03.063Z,6.11
2023-03-18T04:15:10.991Z,5.89
2023-03-18T04:20:14.830Z,5.77
2023-03-18T04:25:18.084Z,5.95
2023-03-18T04:30:25.590Z,5.86
2023-03-18T04:35:38.664Z,5.71
2023-03-18T04:40:42.825Z,5.59
2023-03-18T04:45:47.338Z,5.70
2023-03-18T04:50:51.580Z,5.79
2023-03-18T04:56:00.346Z,5.69
2023-03-18T05:01:13.192Z,5.56
2023-03-18T05:06:22.974Z,5.53
2023-03-18T05:11:40.447Z,5.53
2023-03-18T05:16:51.940Z,5.65
2023-03-18T05:21:55.766Z,5.25
2023-03-18T05:26:59.153Z,4.98
2023-03-18T05:32:11.507Z,5.32
2023-03-18T05:37:16.008Z,5.51
2023-03-18T05:42:25.232Z,5.61
2023-03-18T05:47:29.780Z,5.46
2023-03-18T05:52:39.084Z,5.69
2023-03-18T05:57:48.730Z,5.89
2023-03-18T06:02:53.982Z,5.79
2023-03-18T06:07:57.949Z,6.03
2023-03-18T06:13:01.222Z,6.07
2023-03-18T06:18:06.087Z,6.17
2023-03-18T06:23:09.136Z,6.25
2023-03-18T06:28:13.005Z,6.51
2023-03-18T06:33:18.320Z,6.97
2023-03-18T06:38:22.427Z,7.43
2023-03-18T06:43:27.081Z,7.50
2023-03-18T06:48:32.966Z,7.58
2023-03-18T06:53:38.689Z,7.83
2023-03-18T06:58:41.897Z,8.08
2023-03-18T07:03:46.908Z,8.44
2023-03-18T07:08:50.950Z,8.66
2023-03-18T07:13:54.156Z,8.77
2023-03-18T07:19:05.676Z,9.44
2023-03-18T07:24:09.004Z,10.14
2023-03-18T07:29:11.939Z,10.49
2023-03-18T07:34:17.811Z,11.39
2023-03-18T07:39:21.037Z,11.68
2023-03-18T07:44:25.195Z,11.71
2023-03-18T07:49:30.101Z,11.15
2023-03-18T07:54:33.100Z,11.37
2023-03-18T07:59:36.579Z,11.21
2023-03-18T08:04:40.928Z,11.79
2023-03-18T08:09:43.843Z,12.02
2023-03-18T08:14:48.254Z,12.13
2023-03-18T08:19:53.333Z,12.61
2023-03-18T08:24:58.119Z,12.77
2023-03-18T08:30:03.488Z,12.99
2023-03-18T08:35:09.841Z,12.66
2023-03-18T08:40:13.981Z,12.85
2023-03-18T08:45:17.197Z,12.43
2023-03-18T08:50:22.899Z,12.75
2023-03-18T08:55:30.922Z,13.22
2023-03-18T09:00:34.950Z,13.51
2023-03-18T09:05:40.325Z,14.16
2023-03-18T09:10:45.674Z,14.56
2023-03-18T09:15:48.657Z,14.97
2023-03-18T09:20:53.654Z,14.94
2023-03-18T09:25:57.223Z,15.05
2023-03-18T09:31:00.288Z,15.16
2023-03-18T09:36:05.297Z,15.25
2023-03-18T09:41:22.196Z,16.25
2023-03-18T09:46:34.091Z,16.56
2023-03-18T09:51:54.315Z,16.25
2023-03-18T09:56:57.422Z,17.21
2023-03-18T10:02:01.790Z,17.25
2023-03-18T10:07:13.143Z,15.76
2023-03-18T10:12:22.042Z,15.67
2023-03-18T10:17:30.273Z,15.41
2023-03-18T10:22:55.703Z,15.73
2023-03-18T10:28:14.071Z,15.40
2023-03-18T10:33:27.644Z,15.65
2023-03-18T10:38:37.109Z,15.66
2023-03-18T10:43:40.986Z,15.72
2023-03-18T10:48:47.117Z,15.89
2023-03-18T10:53:58.764Z,16.10
2023-03-18T10:59:02.069Z,15.83
2023-03-18T11:04:07.893Z,15.63
2023-03-18T11:09:14.321Z,15.64
2023-03-18T11:14:20.997Z,15.47
2023-03-18T11:19:29.798Z,15.68
2023-03-18T11:24:39.588Z,15.49
2023-03-18T11:29:46.807Z,15.96
2023-03-18T11:34:57.265Z,16.05
2023-03-18T11:40:18.506Z,15.74
2023-03-18T11:45:36.970Z,15.94
2023-03-18T11:50:47.310Z,16.01
2023-03-18T11:55:59.489Z,16.02
2023-03-18T12:01:12.179Z,16.17
2023-03-18T12:06:21.236Z,16.14
2023-03-18T12:11:42.265Z,15.82
2023-03-18T12:16:55.940Z,16.24
2023-03-18T12:22:11.842Z,16.32
2023-03-18T12:27:24.937Z,16.04
2023-03-18T12:32:34.952Z,16.21
2023-03-18T12:37:53.672Z,15.68
2023-03-18T12:43:11.227Z,16.00
2023-03-18T12:48:18.558Z,15.79
2023-03-18T12:53:29.814Z,15.93
2023-03-18T12:58:40.776Z,16.17
2023-03-18T13:03:46.202Z,15.83
2023-03-18T13:09:02.735Z,15.83
2023-03-18T13:14:15.253Z,15.88
2023-03-18T13:19:18.896Z,15.99
2023-03-18T13:24:53.955Z,15.81
2023-03-18T13:30:06.192Z,15.93
2023-03-18T13:35:37.537Z,15.91
2023-03-18T13:40:57.248Z,15.89
2023-03-18T13:46:02.404Z,15.85
2023-03-18T13:51:21.822Z,16.03
2023-03-18T13:56:33.195Z,16.42
2023-03-18T14:01:50.720Z,16.28
2023-03-18T14:06:57.191Z,16.42
2023-03-18T14:12:16.849Z,16.49
2023-03-18T14:17:26.877Z,16.38
2023-03-18T14:22:36.392Z,16.34
2023-03-18T14:27:47.250Z,16.52
2023-03-18T14:33:00.530Z,16.41
2023-03-18T14:38:10.725Z,16.68
2023-03-18T14:43:21.281Z,16.58
2023-03-18T14:48:30.537Z,16.43
2023-03-18T14:53:35.544Z,16.46
2023-03-18T14:58:38.444Z,16.12
2023-03-18T15:03:45.935Z,16.08
2023-03-18T15:08:51.398Z,16.07
2023-03-18T15:14:00.069Z,16.15
2023-03-18T15:19:05.238Z,16.05
2023-03-18T15:24:09.693Z,15.99
2023-03-18T15:29:33.491Z,15.98
2023-03-18T15:34:47.235Z,15.71
2023-03-18T15:39:55.673Z,15.61
2023-03-18T15:45:01.650Z,15.59
2023-03-18T15:50:27.214Z,15.61
2023-03-18T15:55:34.565Z,15.39
2023-03-18T16:00:37.805Z,15.29
2023-03-18T16:05:42.111Z,15.06
2023-03-18T16:10:46.771Z,15.08
2023-03-18T16:15:49.838Z,15.05
2023-03-18T16:20:54.273Z,15.08
2023-03-18T16:25:59.071Z,15.18
2023-03-18T16:31:01.998Z,14.78
2023-03-18T16:36:07.648Z,14.60
2023-03-18T16:41:10.577Z,14.48
2023-03-18T16:46:15.426Z,14.23
2023-03-18T16:51:19.774Z,13.96
2023-03-18T16:56:24.076Z,13.84
2023-03-18T17:01:28.078Z,13.47
2023-03-18T17:06:32.429Z,13.46
2023-03-18T17:11:35.386Z,13.15
2023-03-18T17:16:38.598Z,13.07
2023-03-18T17:21:42.886Z,12.76
2023-03-18T17:26:47.361Z,12.62
2023-03-18T17:31:50.404Z,12.59
2023-03-18T17:36:56.482Z,12.45
2023-03-18T17:41:59.375Z,12.16
2023-03-18T17:47:03.087Z,12.03
2023-03-18T17:52:07.551Z,11.88
2023-03-18T17:57:15.539Z,11.91
2023-03-18T18:02:20.310Z,11.69
2023-03-18T18:07:25.452Z,11.44
2023-03-18T18:12:28.701Z,11.38
2023-03-18T18:17:31.589Z,11.24
2023-03-18T18:22:36.000Z,10.93
2023-03-18T18:27:38.866Z,10.94
2023-03-18T18:32:41.841Z,10.85
2023-03-18T18:37:47.561Z,10.79
2023-03-18T18:42:50.533Z,10.34
2023-03-18T18:47:53.446Z,9.96
2023-03-18T18:52:57.765Z,10.09
2023-03-18T18:58:01.279Z,10.15
2023-03-18T19:03:04.239Z,10.02
2023-03-18T19:08:20.409Z,9.87
2023-03-18T19:13:24.581Z,9.67
2023-03-18T19:18:33.681Z,9.48
2023-03-18T19:23:37.982Z,9.57
2023-03-18T19:29:01.379Z,9.50
2023-03-18T19:34:16.194Z,9.53
2023-03-18T19:39:21.976Z,9.37
2023-03-18T19:44:26.456Z,9.19
2023-03-18T19:49:33.276Z,9.03
2023-03-18T19:54:38.053Z,9.09
2023-03-18T19:59:41.205Z,9.05
2023-03-18T20:04:44.173Z,8.61
2023-03-18T20:09:48.920Z,8.64
2023-03-18T20:14:52.500Z,8.63
2023-03-18T20:19:55.759Z,8.67
2023-03-18T20:25:00.765Z,8.63
2023-03-18T20:30:10.508Z,8.67
2023-03-18T20:35:13.838Z,8.57
2023-03-18T20:40:22.994Z,8.58
2023-03-18T20:45:26.165Z,8.33
2023-03-18T20:50:29.916Z,8.40
2023-03-18T20:55:36.028Z,8.38
2023-03-18T21:00:38.994Z,8.46
2023-03-18T21:05:41.886Z,8.67
2023-03-18T21:10:47.127Z,8.57
2023-03-18T21:15:50.187Z,8.42
2023-03-18T21:20:53.860Z,8.44
2023-03-18T21:25:58.219Z,8.43
2023-03-18T21:31:03.067Z,8.17
2023-03-18T21:36:07.443Z,8.22
2023-03-18T21:41:19.816Z,8.10
2023-03-18T21:46:24.615Z,8.11
2023-03-18T21:51:39.047Z,7.94
2023-03-18T21:56:44.336Z,8.20
2023-03-18T22:01:47.326Z,8.26
2023-03-18T22:06:50.268Z,8.17
2023-03-18T22:11:54.531Z,8.05
2023-03-18T22:16:57.457Z,7.99
2023-03-18T22:22:00.411Z,8.16
2023-03-18T22:27:04.919Z,8.14
2023-03-18T22:32:10.232Z,7.94
2023-03-18T22:37:19.963Z,8.03
2023-03-18T22:42:26.777Z,8.06
2023-03-18T22:47:29.684Z,8.06
2023-03-18T22:52:32.815Z,8.14
2023-03-18T22:57:37.092Z,8.10
2023-03-18T23:02:40.037Z,7.93
2023-03-18T23:07:43.044Z,7.80
2023-03-18T23:12:48.077Z,7.89
2023-03-18T23:17:50.988Z,7.85
2023-03-18T23:22:54.779Z,7.87
2023-03-18T23:27:59.013Z,7.72
2023-03-18T23:33:02.087Z,7.79
2023-03-18T23:38:05.780Z,7.76
2023-03-18T23:43:10.119Z,7.41
2023-03-18T23:48:13.023Z,7.36
2023-03-18T23:53:16.186Z,7.34
2023-03-18T23:58:20.585Z,7.41
